createdAt,value
2023-03-06T00:01:18.378Z,99705.78
2023-03-06T00:04:42.415Z,99703.75
2023-03-06T00:08:04.896Z,99704.03
2023-03-06T00:11:27.423Z,99702.47
2023-03-06T00:14:49.940Z,99704.91
2023-03-06T00:18:12.478Z,99701.81
2023-03-06T00:21:36.356Z,99694.56
2023-03-06T00:24:59.652Z,99693.81
2023-03-06T00:28:21.909Z,99701.16
2023-03-06T00:31:47.980Z,99699.00
2023-03-06T00:35:11.160Z,99695.72
2023-03-06T00:38:35.709Z,99686.16
2023-03-06T00:41:58.182Z,99690.88
2023-03-06T00:45:21.666Z,99682.91
2023-03-06T00:48:44.861Z,99678.00
2023-03-06T00:52:07.949Z,99673.56
2023-03-06T00:55:33.540Z,99673.56
2023-03-06T00:58:56.329Z,99680.09
2023-03-06T01:02:20.855Z,99675.28
2023-03-06T01:05:44.007Z,99668.78
2023-03-06T01:09:06.274Z,99664.56
2023-03-06T01:12:30.489Z,99667.28
2023-03-06T01:15:52.789Z,99668.44
2023-03-06T01:19:16.250Z,99666.69
2023-03-06T01:22:38.575Z,99661.88
2023-03-06T01:26:01.254Z,99662.47
2023-03-06T01:29:26.541Z,99662.62
2023-03-06T01:32:49.384Z,99654.12
2023-03-06T01:36:13.324Z,99649.19
2023-03-06T01:39:36.307Z,99647.84
2023-03-06T01:42:58.839Z,99653.16
2023-03-06T01:46:30.104Z,99647.22
2023-03-06T01:49:52.709Z,99639.59
2023-03-06T01:53:15.451Z,99639.19
2023-03-06T01:56:38.059Z,99638.28
2023-03-06T02:00:03.010Z,99638.72
2023-03-06T02:03:36.960Z,99642.66
2023-03-06T02:07:01.634Z,99635.56
2023-03-06T02:10:26.994Z,99631.31
2023-03-06T02:13:49.695Z,99629.44
2023-03-06T02:17:14.908Z,99631.66
2023-03-06T02:20:40.874Z,99630.53
2023-03-06T02:24:09.988Z,99635.69
2023-03-06T02:27:33.817Z,99635.16
2023-03-06T02:30:57.049Z,99635.34
2023-03-06T02:34:47.478Z,99628.56
2023-03-06T02:38:12.637Z,99634.13
2023-03-06T02:41:35.927Z,99637.91
2023-03-06T02:45:01.551Z,99634.13
2023-03-06T02:48:24.021Z,99629.59
2023-03-06T02:51:47.220Z,99627.50
2023-03-06T02:55:13.040Z,99629.84
2023-03-06T02:58:36.302Z,99625.94
2023-03-06T03:02:00.694Z,99622.19
2023-03-06T03:05:23.605Z,99624.44
2023-03-06T03:08:46.656Z,99627.66
2023-03-06T03:12:10.193Z,99630.38
2023-03-06T03:15:32.858Z,99629.41
2023-03-06T03:18:57.296Z,99622.34
2023-03-06T03:22:21.221Z,99620.72
2023-03-06T03:25:43.936Z,99621.22
2023-03-06T03:29:06.640Z,99621.50
2023-03-06T03:32:29.347Z,99619.13
2023-03-06T03:35:59.050Z,99621.47
2023-03-06T03:39:22.312Z,99612.31
2023-03-06T03:42:44.726Z,99616.03
2023-03-06T03:46:07.888Z,99621.78
2023-03-06T03:49:30.195Z,99618.84
2023-03-06T03:52:55.578Z,99621.16
2023-03-06T03:56:18.031Z,99623.88
2023-03-06T03:59:41.498Z,99621.56
2023-03-06T04:03:04.450Z,99611.31
2023-03-06T04:06:28.263Z,99618.38
2023-03-06T04:09:52.176Z,99615.13
2023-03-06T04:13:15.357Z,99607.25
2023-03-06T04:16:37.848Z,99610.38
2023-03-06T04:20:02.113Z,99604.19
2023-03-06T04:23:28.011Z,99609.28
2023-03-06T04:26:52.215Z,99601.19
2023-03-06T04:30:15.429Z,99606.16
2023-03-06T04:33:38.127Z,99612.47
2023-03-06T04:37:01.283Z,99600.88
2023-03-06T04:40:27.431Z,99604.03
2023-03-06T04:43:51.619Z,99613.50
2023-03-06T04:47:14.342Z,99619.50
2023-03-06T04:50:38.081Z,99611.63
2023-03-06T04:54:01.237Z,99617.28
2023-03-06T04:57:23.931Z,99606.47
2023-03-06T05:00:48.274Z,99608.25
2023-03-06T05:04:10.881Z,99613.41
2023-03-06T05:07:33.937Z,99616.19
2023-03-06T05:10:57.230Z,99604.41
2023-03-06T05:14:20.177Z,99603.88
2023-03-06T05:17:44.105Z,99601.34
2023-03-06T05:21:07.200Z,99607.22
2023-03-06T05:24:29.830Z,99603.41
2023-03-06T05:27:52.426Z,99603.72
2023-03-06T05:31:14.921Z,99611.38
2023-03-06T05:34:40.294Z,99601.91
2023-03-06T05:38:03.018Z,99610.56
2023-03-06T05:41:25.550Z,99606.88
2023-03-06T05:44:48.292Z,99609.59
2023-03-06T05:48:12.188Z,99615.53
2023-03-06T05:51:35.787Z,99612.13
2023-03-06T05:55:01.333Z,99620.34
2023-03-06T05:58:23.640Z,99617.47
2023-03-06T06:01:46.226Z,99618.59
2023-03-06T06:05:11.783Z,99615.06
2023-03-06T06:08:36.731Z,99622.13
2023-03-06T06:12:00.573Z,99627.22
2023-03-06T06:15:23.070Z,99618.75
2023-03-06T06:18:46.110Z,99620.44
2023-03-06T06:22:08.417Z,99623.47
2023-03-06T06:25:32.700Z,99624.59
2023-03-06T06:28:54.980Z,99626.63
2023-03-06T06:32:17.598Z,99631.69
2023-03-06T06:35:40.200Z,99636.09
2023-03-06T06:39:03.609Z,99633.78
2023-03-06T06:42:33.218Z,99633.00
2023-03-06T06:46:24.311Z,99633.00
2023-03-06T06:49:42.838Z,99634.41
2023-03-06T06:53:05.871Z,99636.38
2023-03-06T06:56:29.273Z,99638.59
2023-03-06T06:59:54.256Z,99634.44
2023-03-06T07:03:16.907Z,99633.47
2023-03-06T07:06:39.898Z,99636.66
2023-03-06T07:10:02.878Z,99631.38
2023-03-06T07:13:26.038Z,99635.34
2023-03-06T07:16:52.014Z,99630.34
2023-03-06T07:20:14.956Z,99626.34
2023-03-06T07:23:38.079Z,99631.44
2023-03-06T07:27:00.755Z,99634.31
2023-03-06T07:30:23.429Z,99637.16
2023-03-06T07:33:47.668Z,99643.31
2023-03-06T07:37:09.987Z,99644.19
2023-03-06T07:40:32.445Z,99644.31
2023-03-06T07:43:54.801Z,99647.00
2023-03-06T07:47:17.714Z,99656.38
2023-03-06T07:50:42.014Z,99660.22
2023-03-06T07:54:04.831Z,99650.50
2023-03-06T07:57:27.172Z,99660.25
2023-03-06T08:00:49.858Z,99655.72
2023-03-06T08:04:12.656Z,99650.69
2023-03-06T08:07:36.487Z,99650.13
2023-03-06T08:10:59.192Z,99649.09
2023-03-06T08:14:21.812Z,99646.38
2023-03-06T08:17:44.650Z,99652.19
2023-03-06T08:21:07.949Z,99660.28
2023-03-06T08:24:32.265Z,99660.09
2023-03-06T08:27:54.732Z,99659.41
2023-03-06T08:31:25.387Z,99655.97
2023-03-06T08:34:48.032Z,99655.72
2023-03-06T08:38:10.593Z,99656.97
2023-03-06T08:41:35.131Z,99654.44
2023-03-06T08:44:57.925Z,99649.22
2023-03-06T08:48:20.612Z,99649.59
2023-03-06T08:51:43.753Z,99642.34
2023-03-06T08:55:07.300Z,99646.38
2023-03-06T08:58:32.026Z,99642.19
2023-03-06T09:01:54.738Z,99641.59
2023-03-06T09:05:17.826Z,99642.34
2023-03-06T09:08:43.105Z,99642.13
2023-03-06T09:12:06.225Z,99644.34
2023-03-06T09:15:30.384Z,99646.47
2023-03-06T09:18:54.117Z,99635.44
2023-03-06T09:22:16.336Z,99623.03
2023-03-06T09:25:39.051Z,99620.13
2023-03-06T09:29:01.681Z,99613.37
2023-03-06T09:32:26.229Z,99616.91
2023-03-06T09:35:50.987Z,99610.00
2023-03-06T09:39:13.618Z,99610.94
2023-03-06T09:42:36.239Z,99594.06
2023-03-06T09:45:59.475Z,99601.44
2023-03-06T09:49:39.536Z,99598.84
2023-03-06T09:53:23.945Z,99594.06
2023-03-06T09:56:48.652Z,99605.09
2023-03-06T10:00:14.703Z,99594.09
2023-03-06T10:03:39.432Z,99590.03
2023-03-06T10:07:05.955Z,99590.41
2023-03-06T10:10:30.033Z,99584.50
2023-03-06T10:13:54.585Z,99581.97
2023-03-06T10:17:18.194Z,99581.69
2023-03-06T10:20:44.853Z,99574.78
2023-03-06T10:24:17.887Z,99577.09
2023-03-06T10:27:44.263Z,99567.69
2023-03-06T10:31:09.408Z,99573.59
2023-03-06T10:34:32.801Z,99562.81
2023-03-06T10:38:01.060Z,99558.66
2023-03-06T10:41:29.552Z,99545.41
2023-03-06T10:45:08.459Z,99543.06
2023-03-06T10:48:32.859Z,99547.56
2023-03-06T10:51:59.947Z,99535.78
2023-03-06T10:55:27.926Z,99547.56
2023-03-06T10:59:05.706Z,99537.38
2023-03-06T11:02:30.478Z,99532.00
2023-03-06T11:05:58.011Z,99528.16
2023-03-06T11:09:23.392Z,99517.59
2023-03-06T11:12:57.652Z,99511.72
2023-03-06T11:16:25.641Z,99502.94
2023-03-06T11:19:48.483Z,99499.91
2023-03-06T11:23:15.970Z,99480.28
2023-03-06T11:26:42.636Z,99474.47
2023-03-06T11:30:08.275Z,99471.31
2023-03-06T11:33:35.488Z,99456.28
2023-03-06T11:36:59.630Z,99455.75
2023-03-06T11:40:24.979Z,99445.91
2023-03-06T11:43:52.373Z,99440.66
2023-03-06T11:47:18.011Z,99430.97
2023-03-06T11:50:43.287Z,99420.88
2023-03-06T11:54:06.226Z,99417.00
2023-03-06T11:57:32.892Z,99412.94
2023-03-06T12:00:57.975Z,99413.16
2023-03-06T12:04:36.916Z,99400.69
2023-03-06T12:08:04.420Z,99389.94
2023-03-06T12:11:32.682Z,99371.59
2023-03-06T12:15:06.921Z,99376.00
2023-03-06T12:18:41.225Z,99366.25
2023-03-06T12:22:16.067Z,99359.28
2023-03-06T12:25:40.657Z,99350.00
2023-03-06T12:29:09.549Z,99349.84
2023-03-06T12:32:41.586Z,99349.38
2023-03-06T12:36:11.567Z,99345.25
2023-03-06T12:39:42.157Z,99349.53
2023-03-06T12:43:43.578Z,99343.94
2023-03-06T12:47:10.057Z,99332.00
2023-03-06T12:50:33.362Z,99329.44
2023-03-06T12:53:56.192Z,99328.44
2023-03-06T12:57:18.587Z,99333.50
2023-03-06T13:01:04.301Z,99335.06
2023-03-06T13:04:34.263Z,99329.09
2023-03-06T13:08:14.070Z,99330.63
2023-03-06T13:12:15.411Z,99327.78
2023-03-06T13:15:39.886Z,99323.50
2023-03-06T13:19:05.755Z,99321.91
2023-03-06T13:22:30.508Z,99320.19
2023-03-06T13:25:53.036Z,99314.00
2023-03-06T13:29:49.065Z,99320.97
2023-03-06T13:33:48.120Z,99319.12
2023-03-06T13:37:46.674Z,99309.81
2023-03-06T13:41:38.290Z,99302.53
2023-03-06T13:45:07.693Z,99297.34
2023-03-06T13:48:44.831Z,99292.44
2023-03-06T13:52:09.769Z,99287.66
2023-03-06T13:55:37.256Z,99277.16
2023-03-06T13:59:12.587Z,99276.81
2023-03-06T14:02:49.771Z,99272.41
2023-03-06T14:06:53.854Z,99269.50
2023-03-06T14:10:23.555Z,99262.56
2023-03-06T14:13:49.737Z,99260.38
2023-03-06T14:17:19.340Z,99259.41
2023-03-06T14:20:43.463Z,99256.56
2023-03-06T14:24:06.308Z,99256.03
2023-03-06T14:27:43.923Z,99249.50
2023-03-06T14:31:08.138Z,99251.91
2023-03-06T14:34:31.750Z,99244.94
2023-03-06T14:37:55.617Z,99237.31
2023-03-06T14:41:26.409Z,99234.03
2023-03-06T14:44:49.079Z,99236.72
2023-03-06T14:48:15.988Z,99232.09
2023-03-06T14:51:41.672Z,99227.53
2023-03-06T14:55:04.816Z,99225.53
2023-03-06T14:58:32.365Z,99229.13
2023-03-06T15:01:58.881Z,99225.31
2023-03-06T15:05:24.272Z,99228.78
2023-03-06T15:08:48.722Z,99219.53
2023-03-06T15:12:34.968Z,99223.84
2023-03-06T15:15:59.693Z,99213.34
2023-03-06T15:19:22.515Z,99215.16
2023-03-06T15:22:49.029Z,99210.47
2023-03-06T15:26:23.157Z,99210.69
2023-03-06T15:29:45.674Z,99213.56
2023-03-06T15:33:18.338Z,99209.28
2023-03-06T15:36:42.148Z,99208.56
2023-03-06T15:40:09.564Z,99205.34
2023-03-06T15:43:35.012Z,99213.19
2023-03-06T15:47:07.773Z,99209.22
2023-03-06T15:50:31.806Z,99213.50
2023-03-06T15:53:57.210Z,99209.25
2023-03-06T15:57:30.771Z,99215.34
2023-03-06T16:00:53.639Z,99217.06
2023-03-06T16:04:17.436Z,99218.53
2023-03-06T16:07:40.314Z,99222.31
2023-03-06T16:11:03.776Z,99216.63
2023-03-06T16:14:28.128Z,99215.25
2023-03-06T16:17:51.016Z,99220.53
2023-03-06T16:21:13.708Z,99223.47
2023-03-06T16:24:37.287Z,99225.75
2023-03-06T16:28:01.328Z,99228.41
2023-03-06T16:31:28.222Z,99224.25
2023-03-06T16:34:51.835Z,99236.59
2023-03-06T16:38:16.830Z,99234.00
2023-03-06T16:41:40.069Z,99239.72
2023-03-06T16:45:03.463Z,99238.03
2023-03-06T16:48:27.501Z,99240.97
2023-03-06T16:51:50.895Z,99241.09
2023-03-06T16:55:13.785Z,99238.59
2023-03-06T16:58:37.454Z,99235.06
2023-03-06T17:02:00.388Z,99243.78
2023-03-06T17:05:26.591Z,99244.06
2023-03-06T17:08:49.935Z,99256.91
2023-03-06T17:12:13.826Z,99258.56
2023-03-06T17:15:38.304Z,99261.41
2023-03-06T17:19:02.506Z,99257.59
2023-03-06T17:22:28.396Z,99257.97
2023-03-06T17:25:52.104Z,99255.81
2023-03-06T17:29:15.563Z,99265.03
2023-03-06T17:32:41.652Z,99270.66
2023-03-06T17:36:05.341Z,99274.38
2023-03-06T17:39:32.752Z,99267.59
2023-03-06T17:42:56.714Z,99256.34
2023-03-06T17:46:20.458Z,99257.88
2023-03-06T17:49:44.253Z,99256.75
2023-03-06T17:53:08.948Z,99261.31
2023-03-06T17:56:36.265Z,99257.78
2023-03-06T18:00:00.772Z,99249.09
2023-03-06T18:03:24.800Z,99252.13
2023-03-06T18:06:49.227Z,99248.72
2023-03-06T18:10:14.699Z,99248.13
2023-03-06T18:13:41.487Z,99243.47
2023-03-06T18:17:06.473Z,99247.28
2023-03-06T18:20:31.425Z,99257.06
2023-03-06T18:23:55.462Z,99258.97
2023-03-06T18:27:21.698Z,99250.78
2023-03-06T18:30:47.978Z,99240.81
2023-03-06T18:34:14.050Z,99242.28
2023-03-06T18:37:39.501Z,99250.78
2023-03-06T18:41:04.033Z,99253.66
2023-03-06T18:44:28.596Z,99251.56
2023-03-06T18:48:06.468Z,99247.37
2023-03-06T18:51:31.875Z,99245.28
2023-03-06T18:54:57.027Z,99232.31
2023-03-06T18:58:21.665Z,99232.88
2023-03-06T19:01:45.936Z,99232.28
2023-03-06T19:05:14.322Z,99245.09
2023-03-06T19:08:39.428Z,99254.37
2023-03-06T19:12:05.217Z,99258.94
2023-03-06T19:15:30.464Z,99271.16
2023-03-06T19:18:55.775Z,99273.97
2023-03-06T19:22:23.761Z,99279.69
2023-03-06T19:25:57.996Z,99283.87
2023-03-06T19:29:24.187Z,99289.44
2023-03-06T19:32:48.758Z,99291.78
2023-03-06T19:36:14.454Z,99297.53
2023-03-06T19:39:40.682Z,99304.56
2023-03-06T19:43:06.301Z,99291.91
2023-03-06T19:46:32.540Z,99290.28
2023-03-06T19:49:59.146Z,99286.31
2023-03-06T19:53:26.637Z,99281.06
2023-03-06T19:56:53.013Z,99268.63
2023-03-06T20:00:17.842Z,99255.03
2023-03-06T20:03:42.100Z,99257.88
2023-03-06T20:07:09.133Z,99256.44
2023-03-06T20:10:39.177Z,99264.09
2023-03-06T20:14:06.181Z,99266.97
2023-03-06T20:17:30.067Z,99265.06
2023-03-06T20:21:00.760Z,99256.19
2023-03-06T20:24:26.115Z,99265.16
2023-03-06T20:27:53.437Z,99266.63
2023-03-06T20:31:20.986Z,99249.91
2023-03-06T20:34:45.787Z,99249.84
2023-03-06T20:38:10.407Z,99241.56
2023-03-06T20:41:35.290Z,99245.97
2023-03-06T20:45:03.055Z,99238.91
2023-03-06T20:48:29.168Z,99245.97
2023-03-06T20:51:53.109Z,99247.63
2023-03-06T20:55:18.597Z,99238.25
2023-03-06T20:58:43.117Z,99243.81
2023-03-06T21:02:06.980Z,99245.47
2023-03-06T21:05:33.051Z,99247.69
2023-03-06T21:08:56.578Z,99253.25
2023-03-06T21:12:19.735Z,99252.66
2023-03-06T21:15:43.312Z,99267.16
2023-03-06T21:19:10.211Z,99269.63
2023-03-06T21:22:34.851Z,99273.06
2023-03-06T21:25:58.354Z,99274.69
2023-03-06T21:29:21.867Z,99269.22
2023-03-06T21:32:44.712Z,99262.53
2023-03-06T21:36:10.918Z,99271.34
2023-03-06T21:39:35.296Z,99270.00
2023-03-06T21:42:58.036Z,99270.59
2023-03-06T21:46:20.778Z,99267.00
2023-03-06T21:49:45.624Z,99257.19
2023-03-06T21:53:08.577Z,99249.22
2023-03-06T21:56:33.654Z,99251.41
2023-03-06T21:59:57.058Z,99263.25
2023-03-06T22:03:19.713Z,99256.53
2023-03-06T22:06:42.846Z,99262.22
2023-03-06T22:10:05.964Z,99252.88
2023-03-06T22:13:29.878Z,99257.47
2023-03-06T22:16:52.697Z,99262.34
2023-03-06T22:20:15.650Z,99255.56
2023-03-06T22:23:38.362Z,99263.38
2023-03-06T22:27:01.008Z,99255.44
2023-03-06T22:30:24.869Z,99250.38
2023-03-06T22:33:47.764Z,99255.81
2023-03-06T22:37:12.987Z,99248.50
2023-03-06T22:40:35.863Z,99249.62
2023-03-06T22:43:58.758Z,99254.63
2023-03-06T22:47:23.087Z,99256.63
2023-03-06T22:50:45.629Z,99264.34
2023-03-06T22:54:08.897Z,99258.06
2023-03-06T22:57:31.098Z,99263.56
2023-03-06T23:00:54.117Z,99265.88
2023-03-06T23:04:18.335Z,99262.28
2023-03-06T23:07:41.472Z,99268.84
2023-03-06T23:11:04.045Z,99271.41
2023-03-06T23:14:49.573Z,99265.69
2023-03-06T23:18:30.985Z,99261.59
2023-03-06T23:22:14.410Z,99270.69
2023-03-06T23:25:59.777Z,99276.91
2023-03-06T23:29:22.545Z,99267.97
2023-03-06T23:32:46.103Z,99268.34
2023-03-06T23:36:10.127Z,99283.53
2023-03-06T23:39:33.733Z,99269.66
2023-03-06T23:42:56.671Z,99280.62
2023-03-06T23:46:19.099Z,99258.84
2023-03-06T23:49:42.109Z,99278.69
2023-03-06T23:53:04.448Z,99260.91
2023-03-06T23:56:29.528Z,99271.41
2023-03-06T23:59:51.776Z,99259.72
